Impacts METAR Board
IDs:

KSAN - San Diego Intl Arpt, CA, US

Updated at: 2100 UTC 20 Sep 2018
Potential Impact None Slight Moderate High
Time 20/09Z 20/10Z 20/11Z 20/12Z 20/13Z 20/14Z 20/15Z 20/16Z 20/17Z 20/18Z 20/19Z 20/20Z 20/21Z
Temp67 67 67 68 68 67 68 68 68 67 69 70 72
Dewpt61 61 60 60 60 60 59 59 59 59 59 59 59
Altim29.78 29.79 29.79 29.80 29.81 29.83 29.85 29.86 29.88 29.89 29.90 29.89 29.88
VIS10 9 9 9 9 10 7 7 6 6 9 10 10
CIG12 11 12 14 14 13 12 12 12 13 15 -- --
CoverOVCOVCOVCOVCOVCOVCOVCOVCOVCBKNBKNFEWFEW
FltCatMVFRMVFRMVFRMVFRMVFRMVFRMVFRMVFRMVFRMVFRMVFRVFRVFR
WX----------------HZHZ------
WDir21001000200200240240220220200180180
WSpd4 0 3 0 4 6 6 6 5 6 8 9 8
WGst-- -- -- -- -- -- -- -- -- -- -- -- --
Raw hourly METARs
KSAN 200851Z 21004KT 10SM OVC012 19/16 A2978 RMK AO2 SLP085 T01940161 55000
KSAN 200951Z 00000KT 9SM OVC011 19/16 A2979 RMK AO2 SLP086 T01940161
KSAN 201051Z 10003KT 9SM OVC012 19/16 A2979 RMK AO2 SLP087 T01940156
KSAN 201205Z 00000KT 9SM OVC014 20/16 A2980 RMK AO2 T02000156
KSAN 201251Z 20004KT 9SM OVC014 20/16 A2981 RMK AO2 SLP095 T02000156
KSAN 201351Z 20006KT 10SM OVC013 19/16 A2983 RMK AO2 SLP101 T01940156
KSAN 201451Z 24006KT 7SM OVC012 20/15 A2985 RMK AO2 SLP107 T02000150 53016
KSAN 201551Z 24006KT 7SM OVC012 20/15 A2986 RMK AO2 SLP112 T02000150
KSAN 201651Z 22005KT 6SM HZ OVC012 20/15 A2988 RMK AO2 SLP118 T02000150
KSAN 201751Z 22006KT 6SM HZ BKN013 19/15 A2989 RMK AO2 SLP121 T01940150 10206 20189 51014
KSAN 201851Z 20008KT 9SM SCT013 BKN015 21/15 A2990 RMK AO2 SLP124 T02060150
KSAN 201951Z 18009KT 10SM FEW013 21/15 A2989 RMK AO2 SLP123 T02110150
KSAN 202051Z 18008KT 10SM FEW013 FEW060 22/15 A2988 RMK AO2 SLP119 T02220150 58002



Page loaded:  21:03 UTC  |   02:03 PM Pacific  |   03:03 PM Mountain  |   04:03 PM Central  |   05:03 PM Eastern

 

ADVISORIES

FORECASTS

FORECASTS

OBSERVATIONS

USER TOOLS

ABOUT US